Chitina, AK

5:48 PM AKDT on August 03, 2015 (GMT -0800)
RAWS | | Change Station
CLOSE
Current Station
Personal Weather Station
Location: Chitina, AK
Elevation: 4060 ft
Nearby Weather Stations

Elev 4060 ft 61.60 °N, 143.01 °W | Updated 1 hour ago

Clear
Clear
61.0 °F
Feels Like 61.0 °F
N
3.0
Wind Variable Wind from West
Gusts 6.0 mph

Today
High -- | Low -- °F
--% Chance of Precip.
Yesterday
High -- | Low -- °F
Precip. -- in
5:06 AM 10:08 PM
Waning Gibbous, 82% visible
Pressure 30.05 in
Visibility 10.0 miles
Clouds Clear
Dew Point 36.0 °F
Humidity 39%
Rainfall in
Snow Depth Not available.
UV 4 out of 12
Pollen Not available.
Air Quality Not available.
Flu Activity Not available.
METAR PAGK 040053Z AUTO VRB05KT 10SM CLR 26/06 A3005 RMK AO2 SLP176 T02560061 TSNO

More Conditions Fewer Conditions

Pressure 30.05 in
Visibility 10.0 miles
Clouds Clear
Dew Point 36.0 °F
Humidity 39%
Rainfall in
Snow Depth Not available.
UV 4 out of 12
Pollen Not available.
Air Quality Not available.
Flu Activity Not available.
METAR PAGK 040053Z AUTO VRB05KT 10SM CLR 26/06 A3005 RMK AO2 SLP176 T02560061 TSNO

More Conditions Fewer Conditions

10-Day Weather Forecast

×

Almanac

Astronomy

Aug. 03, 2015 Rise Set
Actual Time
Civil Twilight
Nautical Twilight
Astronomical Twilight
Moon
Length of Visible Light
Length of Day
Tomorrow will be .
, % of the Moon is Illuminated

Today's Extremes

State Highs State Lows

Community

WunderPhotos

Upload Photos

1,843,820 photos uploaded!

WunderBlogs® & News

Nearby

Air Quality

  Air Quality AQ Index Pollutant
Not available.

Snow Depth

Station Depth Elevation

Earthquake Activity

City Distance Mag. Time & Date
Minimum magnitude displayed is 2.5.

Coastal Water Temperatures

Place Temperature

Stations

Nearby Weather Stations

Station Location Temp. Windchill Dew Point Humidity Wind Precip. Elev Updated Type